気象予報士の航空気象 ゲリラ豪雨に物申す その3

*All archives   *Admin

スポンサーサイト

上記の広告は1ヶ月以上更新のないブログに表示されています。
新しい記事を書く事で広告が消せます。
--:--  |  スポンサー広告  |  EDIT  |  Top↑

2009.08.30 (Sun)

ゲリラ豪雨に物申す その3

 「ゲリラ豪雨」とよばれるような(私は使いたくないのですが)、予期できないような豪雨であったかどうかは、みなさんの判断にまかせます。


19日に沖縄のガーブ川で発生した鉄砲水について、データ整理ができましたので、UPします。


まず、天気図。

ガーブ川洪水天気図



発生場所。

ガーブ川位置

ガーブ川位置詳細


那覇空港のMETAR時系列。

190230Z 36016KT 9999 VCSH FEW015 FEW020TCU 33/27 Q1010
190243Z 36016KT 9999 SHRA FEW015 FEW020TCU 33/27 Q1009
RMK 1CU015 2TCU020 A2982 3000SW TCU 3KM E AND 10KM NE MOV SW

19日午前11時30分ころ、北風 時より驟雨(スコール)
 搭状積雲が3km東 10km北東、南西進。

190243Z 36016KT 9999 SHRA FEW015 FEW020TCU 33/27 Q1009
RMK 1CU015 2TCU020 A2982 3000SW TCU 3KM E AND 10KM NE MOV SW

190250Z 36016KT 9999 +SHRA FEW015 FEW020TCU 31/26 Q1009
RMK 1CU015 2TCU020 A2982 3000SE-S TCU 3KM E-S MOV SW

気温が2度降下、強度の驟雨。

190300Z 36014KT 9999 SHRA FEW012 FEW020TCU 31/26 Q1010

190306Z 36014KT 5000 +SHRA FEW010 SCT020TCU 30/26 Q1010
RMK 2CU010 4TCU020 A2982 9999W TCU NE-OHD-SW MOV SW

塔状積雲が空港直上に移動。

190310Z 36014KT 5000 +SHRA FEW010 SCT020TCU 30/26 Q1010
RMK 2CU010 4TCU020 A2982 9999W TCU NE-OHD-SW MOV SW

190313Z 36014KT 5000 +SHRA FEW010 SCT020TCU 30/26 Q1010
RMK 2CU010 4TCU020 A2982 9999W TCU NE-OHD-SW MOV SW

190322Z 36014KT 5000 +SHRA FEW010 SCT020TCU 30/26 Q1010
RMK 2CU010 4TCU020 A2982 9999W TCU NE-OHD-SW MOV SW

190330Z 36015KT 3000 +SHRA FEW010 SCT020TCU 30/27 Q1010 WS R36
RMK 2CU010 4TCU020 A2982 9999W TCU NE-OHD-SW MOV SW RI++

降水強度が30mm/hを超える。

190341Z 36016KT 2000 R36/1300VP1800N +SHRA FEW010 SCT020TCU 29/27 Q1009
RMK 2CU010 4TCU020 A2982 9999E TCU NE-OHD-SW MOV SW RI++

190345Z 36018KT 1500 R36/P1800N +SHRA FEW007 BKN020TCU 28/26 Q1010
RMK 1ST007 5TCU020 A2983 9999E TCU OHD-SW AND 10KM NE MOV SW

190347Z 34015G25KT 9999 R36/P1800N +SHRA FEW007 SCT020TCU 27/25 Q1010

風が荒れ始め、気温がさらに下がる。

190400Z 34015KT 9999 +TSRA FEW007 SCT020CB 28/26 Q1010
RMK 2ST007 3CB020 A2983 3000SW FBL TS OHD CB OHD TCU 8KM NE MOV SW RI++

降水強度30mm/hを超える雨と、雷。

190404Z VRB09G22KT 1500 R36/0350V0800N +TSRA FEW007 SCT015 BKN020CB 28/25 Q1009
RMK 2ST007 3CU015 5CB020 A2982 FBL TS OHD CB OHD MOV SW RI++

190410Z VRB10G25KT 0800 R36/0350V1100U +TSRA FEW007 SCT015 BKN020CB 27/26 Q1010
RMK 2ST007 3CU015 5CB020 A2983 FBL TS OHD MOV SW RI++

190420Z 35020KT 9999 R36/0500V0800U +TSRA FEW007 SCT015 SCT020CB 27/25 Q1010
RMK 2ST007 3CU015 4CB020 A2983 3000S-W FBL TS 5KM SW MOV SW

190422Z 35017G27KT 9999 R36/0600V1000U +TSRA FEW007 SCT015 SCT020CB 27/25 Q1010
RMK 2ST007 3CU015 4CB020 A2983 3000SW-W FBL TS 5KM SW MOV SW

190430Z 36009KT 320V070 9999 R36/0400VP1800D +TSRA FEW007 SCT015 SCT020CB 27/25 Q1009

190437Z 33005KT 270V070 9999 -TSRA FEW007 SCT015 FEW020CB 27/26 Q1009
RMK 1ST007 3CU015 2CB020 A2982 FBL TS 10KM SW CB OHD-SW MOV SW

190451Z 31005KT 280V350 9999 SHRA FEW007 SCT015 FEW020TCU 28/26 Q1009 RETS
RMK 1ST007 3CU015 2TCU020 A2981 5000E TCU 5KM E AND 10KM SW MOV SW

大雨と雷の峠を越えた模様。

190500Z 35005KT 9999 SHRA FEW007 SCT015 SCT020CB 30/27 Q1009 RETS

190530Z 12003KT 090V170 9999 SHRA FEW010 SCT020CB BKN/// 29/26 Q1009

190545Z 15006KT 9999 TSRA FEW010 FEW020CB BKN/// 28/25 Q1009
RMK 2CU010 2CB020 A2979 5000SE-SW FBL TS 5KM S CB 5KM SE-SW MOV SW

190600Z VRB02KT 9999 SHRA FEW010 FEW020CB 29/26 Q1008 RETS

190605Z VRB02KT 9999 VCSH FEW010 FEW020CB 29/27 Q1008 RERA RETS
RMK 2CU010 2CB020 A2979 CB 10KM S-SW MOV SW

190630Z 34007KT 300V010 9999 FEW015 FEW020CB 31/27 Q1008 RERA



ブログランキングに参加しています。
にほんブログ村 環境ブログ 天気・気象学へ
にほんブログ村
応援クリックをおねがします。
 

以下、アフィリエイトサイトです。







スポンサーサイト
02:16  |  気象・天気  |  TB(0)  |  CM(0)  |  EDIT  |  Top↑

コメントを投稿する


 管理者だけに表示  (非公開コメント投稿可能)

▲PageTop

この記事のトラックバックURL

→http://weathereucalyptus.blog115.fc2.com/tb.php/219-5d03f61c
この記事にトラックバックする(FC2ブログユーザー)

この記事へのトラックバック

▲PageTop

 | BLOGTOP | 
上記広告は1ヶ月以上更新のないブログに表示されています。新しい記事を書くことで広告を消せます。